Bal Harbour, Florida
Current Conditions -  °F | °C
As of 6:53 PM on Friday 24 Oct 2014 (Local Time) from KOPF Reporting Station
Overcast Overcast  
Wind Chill: 78°   Ceiling: 4900
Heat Index: 80°   Visibility: 10mi
Dew Point: 68°   Wind: 9mph
Humidity: 71%   Direction: 20°NNE
Pressure: 29.82"   Gusts: NA
Location:  25.882°N, 80.1292°W
Report Text: KOPF 242253Z 02008KT 10SM SCT034 OVC049 26/20 A2982 RMK AO2 SLP099 T02560200
Loading
Personal Weather Stations






























Interactive Weather Map
Tropical Storm Tracking
New forecast layout! Learn more

10-Day Weather Forecast

Advertisements
Track Severe Weather on mobile